createdAt,value
2023-05-09T00:00:10.954Z,16.55
2023-05-09T00:01:15.211Z,16.55
2023-05-09T00:02:17.844Z,16.55
2023-05-09T00:03:21.073Z,16.55
2023-05-09T00:04:23.045Z,16.56
2023-05-09T00:05:26.271Z,16.55
2023-05-09T00:06:28.142Z,16.53
2023-05-09T00:07:31.559Z,16.52
2023-05-09T00:08:33.564Z,16.51
2023-05-09T00:09:36.387Z,16.50
2023-05-09T00:10:39.626Z,16.48
2023-05-09T00:11:42.517Z,16.47
2023-05-09T00:12:44.423Z,16.47
2023-05-09T00:13:47.274Z,16.47
2023-05-09T00:14:51.711Z,16.46
2023-05-09T00:15:54.665Z,16.46
2023-05-09T00:16:59.544Z,16.46
2023-05-09T00:18:02.518Z,16.46
2023-05-09T00:19:04.606Z,16.45
2023-05-09T00:20:12.424Z,16.44
2023-05-09T00:21:14.493Z,16.43
2023-05-09T00:22:17.795Z,16.41
2023-05-09T00:23:19.786Z,16.41
2023-05-09T00:24:22.802Z,16.40
2023-05-09T00:25:25.287Z,16.38
2023-05-09T00:26:29.590Z,16.38
2023-05-09T00:27:31.457Z,16.37
2023-05-09T00:28:34.414Z,16.38
2023-05-09T00:29:36.869Z,16.37
2023-05-09T00:30:39.732Z,16.37
2023-05-09T00:31:41.576Z,16.38
2023-05-09T00:32:45.123Z,16.35
2023-05-09T00:33:47.142Z,16.36
2023-05-09T00:34:49.962Z,16.34
2023-05-09T00:35:51.793Z,16.37
2023-05-09T00:36:54.660Z,16.32
2023-05-09T00:37:56.513Z,16.31
2023-05-09T00:38:59.380Z,16.31
2023-05-09T00:40:01.209Z,16.30
2023-05-09T00:41:04.052Z,16.29
2023-05-09T00:42:07.477Z,16.29
2023-05-09T00:43:10.315Z,16.27
2023-05-09T00:44:12.252Z,16.27
2023-05-09T00:45:15.255Z,16.26
2023-05-09T00:46:17.397Z,16.24
2023-05-09T00:47:20.431Z,16.21
2023-05-09T00:48:22.883Z,16.19
2023-05-09T00:49:24.774Z,16.18
2023-05-09T00:50:27.763Z,16.15
2023-05-09T00:51:29.615Z,16.13
2023-05-09T00:52:34.696Z,16.13
2023-05-09T00:53:36.634Z,16.13
2023-05-09T00:54:39.729Z,16.13
2023-05-09T00:55:41.779Z,16.12
2023-05-09T00:56:45.103Z,16.11
2023-05-09T00:57:48.810Z,16.12
2023-05-09T00:58:51.651Z,16.12
2023-05-09T00:59:53.662Z,16.12
2023-05-09T01:00:56.603Z,16.12
2023-05-09T01:01:58.476Z,16.12
2023-05-09T01:03:01.456Z,16.11
2023-05-09T01:04:03.647Z,16.11
2023-05-09T01:05:06.965Z,16.11
2023-05-09T01:06:17.802Z,16.10
2023-05-09T01:07:31.298Z,16.10
2023-05-09T01:08:44.965Z,16.10
2023-05-09T01:09:57.181Z,16.10
2023-05-09T01:11:06.503Z,16.09
2023-05-09T01:12:17.172Z,16.07
2023-05-09T01:13:27.186Z,16.07
2023-05-09T01:14:38.720Z,16.03
2023-05-09T01:15:46.916Z,16.01
2023-05-09T01:17:06.717Z,15.99
2023-05-09T01:18:16.401Z,15.98
2023-05-09T01:19:37.564Z,15.99
2023-05-09T01:20:45.559Z,15.99
2023-05-09T01:21:50.175Z,16.00
2023-05-09T01:23:00.867Z,15.98
2023-05-09T01:24:24.505Z,15.98
2023-05-09T01:25:42.684Z,15.99
2023-05-09T01:26:48.417Z,15.98
2023-05-09T01:27:58.128Z,15.93
2023-05-09T01:29:28.788Z,15.94
2023-05-09T01:30:34.388Z,15.93
2023-05-09T01:31:39.329Z,15.92
2023-05-09T01:32:44.646Z,15.92
2023-05-09T01:33:51.511Z,15.90
2023-05-09T01:34:57.720Z,15.91
2023-05-09T01:36:04.622Z,15.91
2023-05-09T01:37:09.209Z,15.90
2023-05-09T01:38:17.542Z,15.89
2023-05-09T01:39:21.760Z,15.89
2023-05-09T01:40:26.018Z,15.88
2023-05-09T01:41:32.600Z,15.88
2023-05-09T01:42:43.438Z,15.87
2023-05-09T01:43:48.459Z,15.86
2023-05-09T01:44:54.227Z,15.86
2023-05-09T01:45:59.561Z,15.86
2023-05-09T01:47:03.008Z,15.85
2023-05-09T01:48:09.428Z,15.85
2023-05-09T01:49:12.666Z,15.83
2023-05-09T01:50:19.123Z,15.82
2023-05-09T01:51:21.963Z,15.81
2023-05-09T01:52:26.281Z,15.80
2023-05-09T01:53:29.412Z,15.80
2023-05-09T01:54:33.686Z,15.79
2023-05-09T01:55:37.672Z,15.77
2023-05-09T01:56:43.319Z,15.76
2023-05-09T01:57:45.777Z,15.76
2023-05-09T01:58:51.076Z,15.75
2023-05-09T01:59:55.406Z,15.75
2023-05-09T02:00:59.051Z,15.73
2023-05-09T02:02:02.930Z,15.73
2023-05-09T02:03:07.112Z,15.71
2023-05-09T02:04:09.601Z,15.70
2023-05-09T02:05:13.427Z,15.71
2023-05-09T02:06:18.498Z,15.70
2023-05-09T02:07:22.985Z,15.68
2023-05-09T02:08:31.601Z,15.67
2023-05-09T02:09:36.843Z,15.67
2023-05-09T02:10:38.958Z,15.67
2023-05-09T02:11:41.844Z,15.66
2023-05-09T02:12:43.782Z,15.66
2023-05-09T02:13:46.850Z,15.63
2023-05-09T02:14:48.763Z,15.62
2023-05-09T02:15:53.216Z,15.62
2023-05-09T02:16:55.228Z,15.62
2023-05-09T02:17:58.187Z,15.60
2023-05-09T02:19:00.089Z,15.60
2023-05-09T02:20:05.256Z,15.60
2023-05-09T02:21:08.284Z,15.59
2023-05-09T02:22:13.223Z,15.58
2023-05-09T02:23:15.604Z,15.59
2023-05-09T02:24:18.857Z,15.59
2023-05-09T02:25:20.757Z,15.59
2023-05-09T02:26:23.672Z,15.56
2023-05-09T02:27:27.176Z,15.56
2023-05-09T02:28:31.040Z,15.58
2023-05-09T02:29:40.294Z,15.62
2023-05-09T02:30:45.368Z,15.57
2023-05-09T02:31:50.369Z,15.55
2023-05-09T02:32:56.484Z,15.55
2023-05-09T02:33:59.331Z,15.54
2023-05-09T02:35:04.027Z,15.54
2023-05-09T02:36:07.328Z,15.53
2023-05-09T02:37:11.360Z,15.50
2023-05-09T02:38:13.850Z,15.51
2023-05-09T02:39:17.175Z,15.50
2023-05-09T02:40:19.550Z,15.50
2023-05-09T02:41:22.356Z,15.52
2023-05-09T02:42:25.615Z,15.47
2023-05-09T02:43:28.413Z,15.44
2023-05-09T02:44:31.005Z,15.43
2023-05-09T02:45:34.027Z,15.43
2023-05-09T02:46:37.700Z,15.41
2023-05-09T02:47:42.185Z,15.40
2023-05-09T02:48:44.192Z,15.40
2023-05-09T02:49:47.899Z,15.37
2023-05-09T02:50:50.449Z,15.37
2023-05-09T02:51:53.325Z,15.37
2023-05-09T02:52:56.300Z,15.38
2023-05-09T02:53:58.206Z,15.37
2023-05-09T02:55:01.157Z,15.36
2023-05-09T02:56:03.919Z,15.37
2023-05-09T02:57:07.116Z,15.37
2023-05-09T02:58:14.176Z,15.36
2023-05-09T02:59:19.663Z,15.35
2023-05-09T03:00:22.371Z,15.34
2023-05-09T03:01:25.481Z,15.34
2023-05-09T03:02:27.629Z,15.34
2023-05-09T03:03:34.731Z,15.33
2023-05-09T03:04:39.330Z,15.32
2023-05-09T03:05:42.373Z,15.31
2023-05-09T03:06:44.444Z,15.30
2023-05-09T03:07:48.983Z,15.29
2023-05-09T03:08:51.105Z,15.29
2023-05-09T03:09:54.175Z,15.27
2023-05-09T03:10:56.219Z,15.28
2023-05-09T03:11:59.786Z,15.26
2023-05-09T03:13:01.789Z,15.24
2023-05-09T03:14:04.945Z,15.25
2023-05-09T03:15:08.032Z,15.24
2023-05-09T03:16:15.301Z,15.22
2023-05-09T03:17:21.231Z,15.22
2023-05-09T03:18:24.434Z,15.22
2023-05-09T03:19:28.264Z,15.22
2023-05-09T03:20:31.335Z,15.21
2023-05-09T03:21:34.345Z,15.22
2023-05-09T03:22:37.275Z,15.23
2023-05-09T03:23:41.689Z,15.22
2023-05-09T03:24:44.917Z,15.21
2023-05-09T03:25:46.734Z,15.19
2023-05-09T03:26:50.301Z,15.19
2023-05-09T03:27:52.667Z,15.17
2023-05-09T03:28:55.847Z,15.17
2023-05-09T03:29:57.832Z,15.17
2023-05-09T03:31:01.023Z,15.17
2023-05-09T03:32:04.047Z,15.17
2023-05-09T03:33:07.260Z,15.17
2023-05-09T03:34:14.818Z,15.15
2023-05-09T03:35:20.756Z,15.16
2023-05-09T03:36:23.898Z,15.14
2023-05-09T03:37:27.220Z,15.12
2023-05-09T03:38:30.426Z,15.12
2023-05-09T03:39:32.693Z,15.12
2023-05-09T03:40:35.585Z,15.11
2023-05-09T03:41:44.278Z,15.09
2023-05-09T03:42:48.875Z,15.08
2023-05-09T03:43:50.840Z,15.07
2023-05-09T03:44:54.909Z,15.06
2023-05-09T03:45:57.324Z,15.05
2023-05-09T03:47:01.951Z,15.03
2023-05-09T03:48:11.256Z,15.01
2023-05-09T03:49:19.671Z,15.00
2023-05-09T03:50:25.986Z,14.99
2023-05-09T03:51:31.083Z,14.98
2023-05-09T03:52:33.837Z,14.98
2023-05-09T03:53:37.075Z,14.96
2023-05-09T03:54:39.565Z,14.94
2023-05-09T03:55:42.483Z,14.94
2023-05-09T03:56:46.298Z,14.94
2023-05-09T03:57:50.196Z,14.93
2023-05-09T03:58:52.979Z,14.94
2023-05-09T03:59:56.301Z,14.95
2023-05-09T04:00:58.526Z,14.94
2023-05-09T04:02:02.103Z,14.95
2023-05-09T04:03:04.858Z,14.93
2023-05-09T04:04:13.407Z,14.91
2023-05-09T04:05:16.758Z,14.92
2023-05-09T04:06:21.550Z,14.90
2023-05-09T04:07:23.568Z,14.90
2023-05-09T04:08:27.932Z,14.92
2023-05-09T04:09:30.465Z,14.92
2023-05-09T04:10:33.896Z,14.93
2023-05-09T04:11:36.334Z,14.93
2023-05-09T04:12:42.599Z,14.93
2023-05-09T04:13:44.992Z,14.91
2023-05-09T04:15:02.047Z,14.91
2023-05-09T04:16:05.619Z,14.92
2023-05-09T04:17:09.943Z,14.91
2023-05-09T04:18:11.990Z,14.92
2023-05-09T04:19:14.888Z,14.90
2023-05-09T04:20:16.852Z,14.93
2023-05-09T04:21:21.392Z,14.93
2023-05-09T04:22:25.763Z,14.83
2023-05-09T04:23:28.613Z,14.83
2023-05-09T04:24:33.997Z,14.83
2023-05-09T04:25:37.266Z,14.88
2023-05-09T04:26:39.395Z,14.84
2023-05-09T04:27:45.488Z,14.89
2023-05-09T04:28:47.403Z,14.85
2023-05-09T04:29:53.511Z,14.83
2023-05-09T04:30:56.266Z,14.83
2023-05-09T04:31:59.283Z,14.84
2023-05-09T04:33:01.862Z,14.84
2023-05-09T04:34:05.357Z,14.85
2023-05-09T04:35:09.873Z,14.87
2023-05-09T04:36:17.085Z,14.87
2023-05-09T04:37:20.792Z,14.89
2023-05-09T04:38:23.880Z,14.92
2023-05-09T04:39:26.024Z,14.93
2023-05-09T04:40:37.557Z,14.97
2023-05-09T04:41:39.428Z,15.02
2023-05-09T04:42:42.318Z,14.99
2023-05-09T04:43:44.450Z,14.97
2023-05-09T04:44:47.664Z,14.99
2023-05-09T04:45:49.649Z,15.03
2023-05-09T04:46:52.553Z,15.06
2023-05-09T04:47:54.442Z,15.06
2023-05-09T04:48:57.364Z,15.11
2023-05-09T04:49:59.243Z,15.13
2023-05-09T04:51:02.728Z,15.16
2023-05-09T04:52:05.457Z,15.23
2023-05-09T04:53:10.948Z,15.22
2023-05-09T04:54:12.990Z,15.24
2023-05-09T04:55:17.537Z,15.30
2023-05-09T04:56:22.672Z,15.40
2023-05-09T04:57:26.329Z,15.39
2023-05-09T04:58:33.289Z,15.41
2023-05-09T04:59:36.624Z,15.48
2023-05-09T05:00:38.598Z,15.54
2023-05-09T05:01:42.709Z,15.58
2023-05-09T05:02:44.854Z,15.61
2023-05-09T05:03:47.827Z,15.65
2023-05-09T05:04:50.202Z,15.69
2023-05-09T05:05:53.306Z,15.76
2023-05-09T05:06:55.611Z,15.78
2023-05-09T05:07:58.462Z,15.83
2023-05-09T05:09:07.388Z,15.89
2023-05-09T05:10:11.137Z,15.94
2023-05-09T05:11:15.164Z,16.01
2023-05-09T05:12:18.194Z,16.06
2023-05-09T05:13:21.489Z,16.04
2023-05-09T05:14:28.306Z,16.04
2023-05-09T05:15:30.956Z,16.09
2023-05-09T05:16:34.636Z,16.13
2023-05-09T05:17:36.790Z,16.19
2023-05-09T05:18:41.371Z,16.24
2023-05-09T05:19:44.084Z,16.30
2023-05-09T05:20:47.714Z,16.35
2023-05-09T05:21:49.561Z,16.37
2023-05-09T05:22:54.508Z,16.40
2023-05-09T05:23:56.370Z,16.43
2023-05-09T05:25:01.039Z,16.45
2023-05-09T05:26:03.947Z,16.40
2023-05-09T05:27:07.400Z,16.32
2023-05-09T05:28:11.354Z,16.24
2023-05-09T05:29:14.213Z,16.17
2023-05-09T05:30:17.342Z,16.15
2023-05-09T05:31:19.307Z,16.10
2023-05-09T05:32:22.214Z,16.04
2023-05-09T05:33:24.357Z,16.02
2023-05-09T05:34:27.852Z,16.02
2023-05-09T05:35:29.742Z,16.07
2023-05-09T05:36:33.678Z,16.10
2023-05-09T05:37:35.748Z,16.08
2023-05-09T05:38:38.830Z,16.05
2023-05-09T05:39:40.868Z,16.03
2023-05-09T05:40:45.624Z,15.98
2023-05-09T05:41:47.710Z,15.94
2023-05-09T05:42:51.355Z,15.89
2023-05-09T05:43:54.422Z,15.86
2023-05-09T05:44:57.687Z,15.84
2023-05-09T05:45:59.995Z,15.80
2023-05-09T05:47:04.739Z,15.79
2023-05-09T05:48:06.846Z,15.78
2023-05-09T05:49:09.866Z,15.76
2023-05-09T05:50:12.237Z,15.71
2023-05-09T05:51:16.027Z,15.70
2023-05-09T05:52:19.090Z,15.71
2023-05-09T05:53:22.158Z,15.71
2023-05-09T05:54:26.818Z,15.71
2023-05-09T05:55:29.753Z,15.70
2023-05-09T05:56:34.674Z,15.69
2023-05-09T05:57:39.093Z,15.67
2023-05-09T05:58:44.212Z,15.66
2023-05-09T05:59:47.667Z,15.66
2023-05-09T06:00:52.704Z,15.66
2023-05-09T06:01:54.807Z,15.66
2023-05-09T06:02:57.786Z,15.67
2023-05-09T06:04:05.833Z,15.67
2023-05-09T06:05:09.242Z,15.68
2023-05-09T06:06:12.840Z,15.68
2023-05-09T06:07:15.088Z,15.69
2023-05-09T06:08:17.937Z,15.69
2023-05-09T06:09:20.734Z,15.68
2023-05-09T06:10:22.837Z,15.69
2023-05-09T06:11:25.817Z,15.69
2023-05-09T06:12:29.115Z,15.69
2023-05-09T06:13:32.042Z,15.70
2023-05-09T06:14:38.852Z,15.70
2023-05-09T06:15:41.768Z,15.70
2023-05-09T06:16:43.725Z,15.70
2023-05-09T06:17:46.692Z,15.70
2023-05-09T06:18:48.786Z,15.69
2023-05-09T06:19:51.601Z,15.70
2023-05-09T06:20:54.692Z,15.71
2023-05-09T06:21:56.645Z,15.71
2023-05-09T06:22:59.511Z,15.71
2023-05-09T06:24:11.769Z,15.72
2023-05-09T06:25:14.369Z,15.73
2023-05-09T06:26:17.447Z,15.73
2023-05-09T06:27:19.460Z,15.75
2023-05-09T06:28:24.009Z,15.75
2023-05-09T06:29:26.969Z,15.73
2023-05-09T06:30:28.930Z,15.77
2023-05-09T06:31:31.870Z,15.77
2023-05-09T06:32:34.935Z,15.78
2023-05-09T06:33:36.884Z,15.79
2023-05-09T06:34:39.766Z,15.79
2023-05-09T06:35:41.804Z,15.80
2023-05-09T06:36:44.661Z,15.84
2023-05-09T06:37:49.610Z,15.83
2023-05-09T06:38:52.568Z,15.84
2023-05-09T06:39:54.802Z,15.86
2023-05-09T06:40:57.667Z,15.88
2023-05-09T06:41:59.557Z,15.91
2023-05-09T06:43:07.732Z,15.94
2023-05-09T06:44:12.044Z,15.95
2023-05-09T06:45:14.643Z,15.98
2023-05-09T06:46:17.806Z,15.99
2023-05-09T06:47:19.698Z,16.00
2023-05-09T06:48:23.923Z,16.02
2023-05-09T06:49:26.436Z,16.04
2023-05-09T06:50:31.393Z,16.05
2023-05-09T06:51:36.530Z,16.12
2023-05-09T06:52:38.511Z,16.21
2023-05-09T06:53:41.553Z,16.26
2023-05-09T06:54:43.546Z,16.29
2023-05-09T06:55:46.714Z,16.30
2023-05-09T06:56:48.650Z,16.32
2023-05-09T06:57:51.499Z,16.36
2023-05-09T06:58:53.569Z,16.47
2023-05-09T06:59:57.802Z,16.57
2023-05-09T07:00:59.731Z,16.67
2023-05-09T07:02:02.660Z,16.76
2023-05-09T07:03:04.711Z,16.86
2023-05-09T07:04:07.646Z,16.92
2023-05-09T07:05:10.369Z,17.01
2023-05-09T07:06:13.534Z,17.10
2023-05-09T07:07:16.398Z,17.16
2023-05-09T07:08:18.737Z,17.23
2023-05-09T07:09:21.862Z,17.24
2023-05-09T07:10:24.755Z,17.25
2023-05-09T07:11:26.943Z,17.26
2023-05-09T07:12:29.949Z,17.24
2023-05-09T07:13:31.961Z,17.18
2023-05-09T07:14:34.880Z,17.12
2023-05-09T07:15:42.722Z,17.08
2023-05-09T07:16:46.396Z,17.04
2023-05-09T07:17:49.385Z,17.02
2023-05-09T07:18:52.336Z,17.03
2023-05-09T07:19:54.243Z,17.02
2023-05-09T07:20:57.190Z,17.01
2023-05-09T07:21:58.991Z,17.02
2023-05-09T07:23:03.478Z,17.05
2023-05-09T07:24:06.288Z,17.06
2023-05-09T07:25:10.211Z,17.06
2023-05-09T07:26:12.580Z,17.12
2023-05-09T07:27:15.395Z,17.17
2023-05-09T07:28:17.430Z,17.19
2023-05-09T07:29:20.273Z,17.25
2023-05-09T07:30:22.540Z,17.27
2023-05-09T07:31:26.958Z,17.32
2023-05-09T07:32:29.892Z,17.36
2023-05-09T07:33:31.851Z,17.40
2023-05-09T07:34:34.954Z,17.46
2023-05-09T07:35:36.858Z,17.50
2023-05-09T07:36:39.785Z,17.55
2023-05-09T07:37:41.711Z,17.56
2023-05-09T07:38:44.596Z,17.56
2023-05-09T07:39:47.512Z,17.53
2023-05-09T07:40:50.358Z,17.51
2023-05-09T07:41:52.247Z,17.47
2023-05-09T07:42:56.736Z,17.47
2023-05-09T07:43:58.786Z,17.44
2023-05-09T07:45:01.804Z,17.46
2023-05-09T07:46:03.742Z,17.47
2023-05-09T07:47:09.001Z,17.49
2023-05-09T07:48:12.481Z,17.53
2023-05-09T07:49:14.362Z,17.57
2023-05-09T07:50:18.050Z,17.54
2023-05-09T07:51:20.060Z,17.58
2023-05-09T07:52:22.915Z,17.57
2023-05-09T07:53:26.370Z,17.56
2023-05-09T07:54:29.388Z,17.55
2023-05-09T07:55:31.259Z,17.53
2023-05-09T07:56:34.122Z,17.51
2023-05-09T07:57:36.990Z,17.50
2023-05-09T07:58:39.909Z,17.49
2023-05-09T07:59:42.420Z,17.50
2023-05-09T08:00:45.261Z,17.51
2023-05-09T08:01:48.624Z,17.52
2023-05-09T08:02:54.055Z,17.52
2023-05-09T08:03:56.175Z,17.51
2023-05-09T08:04:59.073Z,17.47
2023-05-09T08:06:00.990Z,17.45
2023-05-09T08:07:04.115Z,17.46
2023-05-09T08:08:06.041Z,17.43
2023-05-09T08:09:09.090Z,17.40
2023-05-09T08:10:11.517Z,17.38
2023-05-09T08:11:14.398Z,17.37
2023-05-09T08:12:16.545Z,17.36
2023-05-09T08:13:19.493Z,17.42
2023-05-09T08:14:21.452Z,17.48
2023-05-09T08:15:24.291Z,17.48
2023-05-09T08:16:26.364Z,17.51
2023-05-09T08:17:29.231Z,17.55
2023-05-09T08:19:06.588Z,17.52
2023-05-09T08:20:11.142Z,17.53
2023-05-09T08:21:14.247Z,17.56
2023-05-09T08:22:19.406Z,17.57
2023-05-09T08:23:22.465Z,17.58
2023-05-09T08:24:24.518Z,17.58
2023-05-09T08:25:27.481Z,17.58
2023-05-09T08:26:29.364Z,17.61
2023-05-09T08:27:32.256Z,17.63
2023-05-09T08:28:35.155Z,17.65
2023-05-09T08:29:37.113Z,17.66
2023-05-09T08:30:40.604Z,17.67
2023-05-09T08:31:43.543Z,17.71
2023-05-09T08:32:45.612Z,17.70
2023-05-09T08:33:51.305Z,17.71
2023-05-09T08:34:54.580Z,17.70
2023-05-09T08:35:57.438Z,17.69
2023-05-09T08:36:59.354Z,17.70
2023-05-09T08:38:02.280Z,17.74
2023-05-09T08:39:04.151Z,17.75
2023-05-09T08:40:08.663Z,17.78
2023-05-09T08:41:10.622Z,17.79
2023-05-09T08:42:18.874Z,17.82
2023-05-09T08:43:23.730Z,17.87
2023-05-09T08:44:27.904Z,17.88
2023-05-09T08:45:31.146Z,17.91
2023-05-09T08:46:38.007Z,17.92
2023-05-09T08:47:40.761Z,17.94
2023-05-09T08:48:45.439Z,17.95
2023-05-09T08:49:47.752Z,17.97
2023-05-09T08:50:52.389Z,17.99
2023-05-09T08:51:56.373Z,18.02
2023-05-09T08:52:59.679Z,18.03
2023-05-09T08:54:01.669Z,18.05
2023-05-09T08:55:06.267Z,18.05
2023-05-09T08:56:08.771Z,18.06
2023-05-09T08:57:11.653Z,18.05
2023-05-09T08:58:14.806Z,18.08
2023-05-09T08:59:19.569Z,18.09
2023-05-09T09:00:23.738Z,18.08
2023-05-09T09:01:27.643Z,18.09
2023-05-09T09:02:31.198Z,18.13
2023-05-09T09:03:33.687Z,18.15
2023-05-09T09:04:36.754Z,18.16
2023-05-09T09:05:42.779Z,18.07
2023-05-09T09:06:47.844Z,18.09
2023-05-09T09:07:51.136Z,18.12
2023-05-09T09:08:56.466Z,18.15
2023-05-09T09:10:00.631Z,18.18
2023-05-09T09:11:04.288Z,18.15
2023-05-09T09:12:07.927Z,18.14
2023-05-09T09:13:13.426Z,18.21
2023-05-09T09:14:20.262Z,18.19
2023-05-09T09:15:24.190Z,18.22
2023-05-09T09:16:29.737Z,18.20
2023-05-09T09:17:34.557Z,18.20
2023-05-09T09:18:39.807Z,18.19
2023-05-09T09:19:45.281Z,18.19
2023-05-09T09:20:52.101Z,18.19
2023-05-09T09:22:00.179Z,18.21
2023-05-09T09:23:05.696Z,18.20
2023-05-09T09:24:08.380Z,18.18
2023-05-09T09:25:12.614Z,18.20
2023-05-09T09:26:15.557Z,18.22
2023-05-09T09:27:17.614Z,18.23
2023-05-09T09:28:20.562Z,18.26
2023-05-09T09:29:24.779Z,18.26
2023-05-09T09:30:26.897Z,18.28
2023-05-09T09:31:34.812Z,18.29
2023-05-09T09:32:37.761Z,18.29
2023-05-09T09:33:40.598Z,18.30
2023-05-09T09:34:44.200Z,18.28
2023-05-09T09:35:47.548Z,18.32
2023-05-09T09:36:51.090Z,18.32
2023-05-09T09:38:00.030Z,18.35
2023-05-09T09:39:06.331Z,18.38
2023-05-09T09:40:10.781Z,18.39
2023-05-09T09:41:14.248Z,18.41
2023-05-09T09:42:18.214Z,18.43
2023-05-09T09:43:20.279Z,18.44
2023-05-09T09:44:23.957Z,18.46
2023-05-09T09:45:27.794Z,18.50
2023-05-09T09:46:31.345Z,18.51
2023-05-09T09:47:34.635Z,18.50
2023-05-09T09:48:39.419Z,18.52
2023-05-09T09:49:46.397Z,18.53
2023-05-09T09:50:49.390Z,18.53
2023-05-09T09:51:53.425Z,18.50
2023-05-09T09:52:57.280Z,18.49
2023-05-09T09:54:03.115Z,18.52
2023-05-09T09:55:06.839Z,18.54
2023-05-09T09:56:08.911Z,18.45
2023-05-09T09:57:11.875Z,18.50
2023-05-09T09:58:18.557Z,18.53
2023-05-09T09:59:23.560Z,18.54
2023-05-09T10:00:27.635Z,18.54
2023-05-09T10:01:30.954Z,18.57
2023-05-09T10:02:33.348Z,18.55
2023-05-09T10:03:37.935Z,18.59
2023-05-09T10:04:42.627Z,18.59
2023-05-09T10:05:45.424Z,18.59
2023-05-09T10:06:54.000Z,18.61
2023-05-09T10:07:59.843Z,18.61
2023-05-09T10:09:01.801Z,18.62
2023-05-09T10:10:06.176Z,18.67
2023-05-09T10:11:09.706Z,18.71
2023-05-09T10:12:14.694Z,18.73
2023-05-09T10:13:18.002Z,18.74
2023-05-09T10:14:22.011Z,18.73
2023-05-09T10:15:25.684Z,18.74
2023-05-09T10:16:40.123Z,18.72
2023-05-09T10:17:46.438Z,18.72
2023-05-09T10:18:49.598Z,18.73
2023-05-09T10:19:51.979Z,18.75
2023-05-09T10:20:55.477Z,18.74
2023-05-09T10:22:00.160Z,18.75
2023-05-09T10:23:05.210Z,18.74
2023-05-09T10:24:09.305Z,18.75
2023-05-09T10:25:18.311Z,18.75
2023-05-09T10:26:27.422Z,18.75
2023-05-09T10:27:32.250Z,18.76
2023-05-09T10:28:39.832Z,18.77
2023-05-09T10:29:46.704Z,18.77
2023-05-09T10:30:58.420Z,18.81
2023-05-09T10:32:06.734Z,18.82
2023-05-09T10:33:11.557Z,18.86
2023-05-09T10:34:15.219Z,18.89
2023-05-09T10:35:19.237Z,18.91
2023-05-09T10:36:23.250Z,18.92
2023-05-09T10:37:26.387Z,18.98
2023-05-09T10:38:30.912Z,19.00
2023-05-09T10:39:34.358Z,18.98
2023-05-09T10:40:37.521Z,18.96
2023-05-09T10:41:41.181Z,18.94
2023-05-09T10:42:43.499Z,19.00
2023-05-09T10:43:47.247Z,18.97
2023-05-09T10:44:49.674Z,18.97
2023-05-09T10:45:53.563Z,18.95
2023-05-09T10:46:56.330Z,18.98
2023-05-09T10:47:59.855Z,19.00
2023-05-09T10:49:02.178Z,19.01
2023-05-09T10:50:05.749Z,19.03
2023-05-09T10:51:08.319Z,19.04
2023-05-09T10:52:11.878Z,19.05
2023-05-09T10:53:17.713Z,19.07
2023-05-09T10:54:31.100Z,19.06
2023-05-09T10:55:37.581Z,19.06
2023-05-09T10:56:41.320Z,19.04
2023-05-09T10:57:54.464Z,19.03
2023-05-09T10:58:57.833Z,19.04
2023-05-09T11:00:01.382Z,19.07
2023-05-09T11:01:05.515Z,19.10
2023-05-09T11:02:14.755Z,19.10
2023-05-09T11:03:19.241Z,19.16
2023-05-09T11:04:22.266Z,19.16
2023-05-09T11:05:24.152Z,19.18
2023-05-09T11:06:49.302Z,19.19
2023-05-09T11:08:19.306Z,19.19
2023-05-09T11:09:33.128Z,19.18
2023-05-09T11:10:42.801Z,19.20
2023-05-09T11:11:53.344Z,19.17
2023-05-09T11:12:58.502Z,19.17
2023-05-09T11:14:00.584Z,19.16
2023-05-09T11:15:09.040Z,19.20
2023-05-09T11:16:13.825Z,19.24
2023-05-09T11:17:29.732Z,19.24
2023-05-09T11:18:32.943Z,19.23
2023-05-09T11:19:57.585Z,19.19
2023-05-09T11:21:00.922Z,19.26
2023-05-09T11:22:12.544Z,19.29
2023-05-09T11:23:18.023Z,19.27
2023-05-09T11:24:22.757Z,19.28
2023-05-09T11:25:28.479Z,19.31
2023-05-09T11:26:31.493Z,19.33
2023-05-09T11:27:43.673Z,19.33
2023-05-09T11:28:53.381Z,19.30
2023-05-09T11:29:58.010Z,19.33
2023-05-09T11:31:11.405Z,19.33
2023-05-09T11:32:15.646Z,19.37
2023-05-09T11:33:25.581Z,19.37
2023-05-09T11:34:29.844Z,19.40
2023-05-09T11:35:33.342Z,19.41
2023-05-09T11:36:36.884Z,19.42
2023-05-09T11:37:48.173Z,19.40
2023-05-09T11:39:01.542Z,19.41
2023-05-09T11:40:05.068Z,19.47
2023-05-09T11:41:09.949Z,19.47
2023-05-09T11:42:12.958Z,19.50
2023-05-09T11:43:16.150Z,19.52
2023-05-09T11:44:20.688Z,19.52
2023-05-09T11:45:25.008Z,19.56
2023-05-09T11:46:28.325Z,19.59
2023-05-09T11:47:31.269Z,19.58
2023-05-09T11:48:38.844Z,19.57
2023-05-09T11:49:44.016Z,19.56
2023-05-09T11:50:49.544Z,19.59
2023-05-09T11:51:52.512Z,19.65
2023-05-09T11:52:55.575Z,19.67
2023-05-09T11:53:57.527Z,19.66
2023-05-09T11:55:01.343Z,19.67
2023-05-09T11:56:06.309Z,19.69
2023-05-09T11:57:10.924Z,19.65
2023-05-09T11:58:14.517Z,19.61
2023-05-09T11:59:16.631Z,19.62
2023-05-09T12:00:21.912Z,19.64
2023-05-09T12:01:23.905Z,19.68
2023-05-09T12:02:26.924Z,19.68
2023-05-09T12:03:30.913Z,19.65
2023-05-09T12:04:36.794Z,19.69
2023-05-09T12:05:40.112Z,19.68
2023-05-09T12:06:48.499Z,19.68
2023-05-09T12:07:52.903Z,19.73
2023-05-09T12:08:56.865Z,19.76
2023-05-09T12:10:02.680Z,19.78
2023-05-09T12:11:12.575Z,19.77
2023-05-09T12:12:20.783Z,19.76
2023-05-09T12:13:24.085Z,19.76
2023-05-09T12:14:31.137Z,19.82
2023-05-09T12:15:37.866Z,19.84
2023-05-09T12:16:46.862Z,19.80
2023-05-09T12:18:02.290Z,19.84
2023-05-09T12:19:05.587Z,19.82
2023-05-09T12:20:10.868Z,19.82
2023-05-09T12:21:13.425Z,19.85
2023-05-09T12:22:16.253Z,19.87
2023-05-09T12:23:19.121Z,19.90
2023-05-09T12:24:22.692Z,19.85
2023-05-09T12:25:24.686Z,19.79
2023-05-09T12:26:28.239Z,19.76
2023-05-09T12:27:33.085Z,19.79
2023-05-09T12:28:36.874Z,19.79
2023-05-09T12:29:40.364Z,19.84
2023-05-09T12:30:43.862Z,19.84
2023-05-09T12:31:47.864Z,19.89
2023-05-09T12:32:50.944Z,19.89
2023-05-09T12:33:54.234Z,19.93
2023-05-09T12:34:56.181Z,19.96
2023-05-09T12:36:06.983Z,20.02
2023-05-09T12:37:16.155Z,20.01
2023-05-09T12:38:21.702Z,20.07
2023-05-09T12:39:24.664Z,20.16
2023-05-09T12:40:27.925Z,20.20
2023-05-09T12:41:39.308Z,20.18
2023-05-09T12:42:48.306Z,20.20
2023-05-09T12:43:51.655Z,20.20
2023-05-09T12:44:53.664Z,20.20
2023-05-09T12:45:56.637Z,20.21
2023-05-09T12:47:02.241Z,20.25
2023-05-09T12:48:06.133Z,20.23
2023-05-09T12:49:20.942Z,20.23
2023-05-09T12:50:23.879Z,20.19
2023-05-09T12:51:26.841Z,20.23
2023-05-09T12:52:34.638Z,20.19
2023-05-09T12:53:41.802Z,20.22
2023-05-09T12:54:47.364Z,20.26
2023-05-09T12:55:49.320Z,20.24
2023-05-09T12:56:53.470Z,20.21
2023-05-09T12:58:03.301Z,20.23
2023-05-09T12:59:14.784Z,20.21
2023-05-09T13:00:19.609Z,20.20
2023-05-09T13:01:24.912Z,20.16
2023-05-09T13:02:28.648Z,20.24
2023-05-09T13:03:37.754Z,20.18
2023-05-09T13:04:41.301Z,20.21
2023-05-09T13:05:44.179Z,20.24
2023-05-09T13:06:51.284Z,20.28
2023-05-09T13:07:58.108Z,20.27
2023-05-09T13:09:02.429Z,20.28
2023-05-09T13:10:12.358Z,20.27
2023-05-09T13:11:17.999Z,20.29
2023-05-09T13:12:21.375Z,20.32
2023-05-09T13:13:27.726Z,20.28
2023-05-09T13:14:31.312Z,20.28
2023-05-09T13:15:34.274Z,20.22
2023-05-09T13:16:36.172Z,20.20
2023-05-09T13:17:39.209Z,20.19
2023-05-09T13:18:42.102Z,20.23
2023-05-09T13:19:43.964Z,20.28
2023-05-09T13:20:46.884Z,20.30
2023-05-09T13:21:49.745Z,20.31
2023-05-09T13:22:52.747Z,20.32
2023-05-09T13:23:55.773Z,20.32
2023-05-09T13:24:58.700Z,20.36
2023-05-09T13:26:00.726Z,20.33
2023-05-09T13:27:03.848Z,20.36
2023-05-09T13:28:06.426Z,20.35
2023-05-09T13:29:10.846Z,20.30
2023-05-09T13:30:15.707Z,20.30
2023-05-09T13:31:19.223Z,20.36
2023-05-09T13:32:22.225Z,20.33
2023-05-09T13:33:26.588Z,20.38
2023-05-09T13:34:29.847Z,20.38
2023-05-09T13:35:32.695Z,20.37
2023-05-09T13:36:35.682Z,20.37
2023-05-09T13:37:37.564Z,20.36
2023-05-09T13:38:40.827Z,20.29
2023-05-09T13:39:43.014Z,20.32
2023-05-09T13:40:45.851Z,20.42
2023-05-09T13:41:51.365Z,20.43
2023-05-09T13:42:53.295Z,20.44
2023-05-09T13:43:56.148Z,20.45
2023-05-09T13:45:00.370Z,20.45
2023-05-09T13:46:03.618Z,20.45
2023-05-09T13:47:07.763Z,20.49
2023-05-09T13:48:09.766Z,20.50